Perth International Airport
YPPH : rendu visible

Aérodrome :











RETROUVEZ-NOUS SUR...

 
LOGIN :

S'inscrire | Disclaimer

   EN    FR    IT 

 









Légende :    VFR   VFR Marginal   IFR   IFR Intensif   IFR Très Intensif
Visi : 
Plafond : 
>= 8 km
>= 3000ft
5 à 8 km
1000 à 3000 ft
1500m à 5 km
500 à 1000 ft
800 à 1500m
200 à 500 ft
< 800m
< 200 ft
Symboles :   Orages  Brouillard  Fortes neiges  Fortes précipitations  Vent > 20 kt






- Altitude de l'aérodrome : 67 ft
- Code IATA : PER


YPPH - Perth International

DERNIER METAR :
  • 252000Z 07001KT 8000 -DZ FEW020 BKN030 09/09 Q1018 NOSIG

METARs EXPIRÉS :
  • 251930Z AUTO 02004KT 340V050 8000 -SHRA SCT024 SCT027 BKN036 09/08 Q1017
  • 251921Z AUTO 33003KT 6000 -RA BKN027 BKN033 OVC038 10/09 Q1017 FM1930 VRB03KT 9999 -SHRA SCT045
  • 251900Z 36006KT 320V020 9000 -DZ SCT030 SCT050 10/09 Q1017 NOSIG
  • 251830Z AUTO 06006KT 9999 // SCT041 SCT047 SCT051 09/08 Q1017 NOSIG
  • 251800Z AUTO 07007KT 9999 // SCT057 BKN067 09/08 Q1017 NOSIG
  • 251730Z 07006KT 9999 FEW028 SCT050 09/08 Q1017 NOSIG

TAF TAF YPPH
Valide du 25 à 18h jusqu'au 27 à 00h UTC


251611Z 2518/2700 VRB03KT 9999 -SHRA SCT045
FM252100 04005KT 9999 -SHRA BKN030
FM260600 34006KT 9999 -SHRA BKN040
FIR YMMM / Océanie



MET'MAP, la Météo Aéronautique d'un coup d'oeil ! - Copyright ORBIFLY Décembre 2007 - Disclaimer

ORBIFLY MET'MAP TEAM :

Programmation & Développement : Alexandra Zaïnal
Sur une idée originale de : Baudouin d'Aumeries
Assistance à la programmation : Marc-Olivier Méhu
Soutien technique & logistique : Manuel Goepfert

Contact : metmap@orbifly.com




SOURCES & CREDITS :

   NOAA       Earth
Advisory